< Typhoon 201918 2019 Season Typhoon 201920 >
Typhoon 201919 (HAGIBIS)
Reiwa First Year East Japan Typhoon
General InformationTrack Information on Google MapsDetailed Wind InformationForecast History on Google MapsAccess Analytics MapList of All Images || NewsDisaster Info.WeblogTrackbackTyphoon FrontTwiphoonTyphoon Now!Typhoon ImaginationJMA Disaster Info. XMLResourceGoogle EarthGE AnimationAtom FeedGeoJSON
Detalied Best Track (Time Zone = UTC)
Year Month Day Hour Lat. Long. Pressure (hPa) Wind (kt) Class Image Chart
2019 10 4 18 15.7 164.4 1008 0 2 Image Chart
2019 10 5 00 15.0 162.7 1006 0 2 Image Chart
2019 10 5 06 15.3 161.1 1004 0 2 Image Chart
2019 10 5 12 15.2 159.4 1004 0 2 Image Chart
2019 10 5 18 15.1 157.4 1000 35 3 Image Chart
2019 10 6 00 14.4 155.6 992 45 3 Image Chart
2019 10 6 06 14.3 154.1 985 55 4 Image Chart
2019 10 6 12 14.6 153.0 970 70 5 Image Chart
2019 10 6 18 14.9 151.2 955 80 5 Image Chart
2019 10 7 00 15.1 149.6 940 90 5 Image Chart
2019 10 7 06 15.5 148.2 925 100 5 Image Chart
2019 10 7 12 16.1 146.6 915 105 5 Image Chart
2019 10 7 18 16.5 144.9 915 105 5 Image Chart
2019 10 8 00 16.9 143.8 915 105 5 Image Chart
2019 10 8 06 17.7 142.7 915 105 5 Image Chart
2019 10 8 12 18.4 141.8 915 105 5 Image Chart
2019 10 8 18 19.3 140.9 915 105 5 Image Chart
2019 10 9 00 19.8 140.4 915 105 5 Image Chart
2019 10 9 06 20.6 140.0 915 105 5 Image Chart
2019 10 9 12 21.2 139.6 915 105 5 Image Chart
2019 10 9 18 22.0 139.7 915 105 5 Image Chart
2019 10 10 00 23.2 139.9 915 105 5 Image Chart
2019 10 10 06 24.4 139.5 915 105 5 Image Chart
2019 10 10 12 25.3 139.0 920 100 5 Image Chart
2019 10 10 18 26.3 138.6 925 95 5 Image Chart
2019 10 11 00 27.5 138.1 935 90 5 Image Chart
2019 10 11 06 28.8 137.5 935 90 5 Image Chart
2019 10 11 12 29.9 137.1 945 85 5 Image Chart
2019 10 11 15 30.3 137.0 945 85 5 Image Chart
2019 10 11 18 30.8 137.1 945 85 5 Image Chart
2019 10 11 21 31.4 137.1 945 85 5 Image Chart
2019 10 12 00 32.0 137.4 950 80 5 Image Chart
2019 10 12 03 32.8 137.6 950 80 5 Image Chart
2019 10 12 06 33.7 138.2 950 80 5 Image Chart
2019 10 12 09 34.6 138.7 955 80 5 Image Chart
2019 10 12 12 35.6 139.6 965 70 5 Image Chart
2019 10 12 15 36.9 140.6 970 65 5 Image Chart
2019 10 12 18 38.2 141.8 975 60 4 Image Chart
2019 10 12 21 39.5 143.5 975 60 4 Image Chart
2019 10 13 00 40.1 145.1 975 60 4 Image Chart
2019 10 13 03 41.0 147.0 980 0 6 Image Chart
2019 10 13 06 41.9 149.8 984 0 6 Image Chart
2019 10 13 12 44.0 155.9 988 0 6 Image Chart
2019 10 13 18 47.0 163.3 984 0 6 Image Chart
2019 10 14 00 51.6 170.6 980 0 6 Image Chart
2019 10 14 06 54.3 175.9 970 0 6 Image Chart
2019 10 14 12 56.4 179.7 956 0 6 Image Chart
2019 10 14 18 57.4 182.0 954 0 6 Image Chart
Japan Meteorological Agency Best Track Data | Correction Date : 2019-11-29
< Typhoon 201918 2019 Season Typhoon 201920 >

Help